Time;durP1;ratioP1;P1;durP2;ratioP2;P2;SDS_P1;SDS_P2;PMS_P1;PMS_P2;Temp;Humidity;BMP_temperature;BMP_pressure;BME280_temperature;BME280_humidity;BME280_pressure;Samples;Min_cycle;Max_cycle;Signal;HPM_P1;HPM_P2
2023/06/08 00:00:24;;;;;;;25.60;9.20;;;11.50;99.90;;;;;;5024125;28;20049;-72
2023/06/08 00:02:50;;;;;;;22.45;10.35;;;11.50;99.90;;;;;;5026254;28;20052;-73
2023/06/08 00:05:17;;;;;;;21.52;9.90;;;11.50;99.90;;;;;;5025225;28;20404;-73
2023/06/08 00:07:43;;;;;;;19.83;10.65;;;11.50;99.90;;;;;;5019990;28;20068;-72
2023/06/08 00:10:09;;;;;;;19.05;9.57;;;11.50;99.90;;;;;;5025967;28;20440;-73
2023/06/08 00:12:36;;;;;;;22.63;10.07;;;11.50;99.90;;;;;;5024145;28;20404;-73
2023/06/08 00:15:03;;;;;;;18.45;9.80;;;11.50;99.90;;;;;;5021794;28;20455;-74
2023/06/08 00:17:31;;;;;;;24.42;10.75;;;11.50;99.90;;;;;;5014190;28;20456;-72
2023/06/08 00:19:56;;;;;;;24.55;11.50;;;11.50;99.90;;;;;;5026515;28;20048;-72
2023/06/08 00:22:22;;;;;;;22.73;9.68;;;11.60;99.90;;;;;;5009179;28;20045;-73
2023/06/08 00:24:48;;;;;;;23.00;9.00;;;11.60;99.90;;;;;;5019137;28;20080;-73
2023/06/08 00:27:14;;;;;;;21.05;9.85;;;11.60;99.90;;;;;;5023122;28;20505;-72
2023/06/08 00:29:40;;;;;;;17.40;8.27;;;11.50;99.90;;;;;;5022369;28;20068;-71
2023/06/08 00:32:06;;;;;;;19.60;8.43;;;11.60;99.90;;;;;;4999926;28;20278;-73
2023/06/08 00:34:31;;;;;;;18.40;8.32;;;11.50;99.90;;;;;;5022306;28;20052;-73
2023/06/08 00:36:57;;;;;;;20.92;9.27;;;11.60;99.90;;;;;;5022318;28;20116;-73
2023/06/08 00:39:23;;;;;;;17.65;8.30;;;11.60;99.90;;;;;;5025670;28;20037;-73
2023/06/08 00:41:49;;;;;;;15.63;8.95;;;11.60;99.90;;;;;;5024037;28;20497;-72
2023/06/08 00:44:17;;;;;;;19.88;9.55;;;11.60;99.90;;;;;;5023785;28;20033;-72
2023/06/08 00:46:43;;;;;;;23.90;10.57;;;11.60;99.90;;;;;;5019437;28;20044;-73
2023/06/08 00:49:15;;;;;;;25.55;10.07;;;11.60;99.90;;;;;;5023521;28;20184;-73
2023/06/08 00:51:42;;;;;;;17.55;9.52;;;11.60;99.90;;;;;;5024079;28;20064;-73
2023/06/08 00:54:10;;;;;;;18.30;9.50;;;11.50;99.90;;;;;;5022018;28;20041;-73
2023/06/08 00:56:38;;;;;;;26.05;10.73;;;11.60;99.90;;;;;;5021025;28;20045;-73
2023/06/08 00:59:05;;;;;;;20.77;10.65;;;11.60;99.90;;;;;;5024823;28;20037;-73
2023/06/08 01:01:31;;;;;;;19.90;11.20;;;11.50;99.90;;;;;;5017905;28;20038;-72
2023/06/08 01:04:05;;;;;;;19.02;11.20;;;11.50;99.90;;;;;;5019809;28;20056;-73
2023/06/08 01:06:39;;;;;;;18.90;10.70;;;11.50;99.90;;;;;;5025011;28;20477;-73
2023/06/08 01:09:22;;;;;;;19.70;10.55;;;11.50;99.90;;;;;;5022432;28;20053;-73
2023/06/08 01:12:15;;;;;;;20.85;10.65;;;11.50;99.90;;;;;;5021936;28;20500;-72
2023/06/08 01:15:23;;;;;;;21.50;9.57;;;11.50;99.90;;;;;;5021663;28;20091;-73
2023/06/08 01:17:57;;;;;;;23.15;11.07;;;11.50;99.90;;;;;;4941014;28;20050;-74
2023/06/08 01:20:34;;;;;;;24.10;10.85;;;11.50;99.90;;;;;;4929684;28;20042;-73
2023/06/08 01:23:08;;;;;;;18.48;10.07;;;11.50;99.90;;;;;;4989371;28;20054;-73
2023/06/08 01:25:38;;;;;;;20.67;10.93;;;11.50;99.90;;;;;;5025688;28;20415;-73
2023/06/08 01:28:12;;;;;;;19.40;9.63;;;11.50;99.90;;;;;;5021507;28;20489;-73
2023/06/08 01:30:51;;;;;;;19.23;9.32;;;11.50;99.90;;;;;;5026190;28;20049;-73
2023/06/08 01:33:20;;;;;;;23.00;9.60;;;11.50;99.90;;;;;;5003286;28;20041;-73
2023/06/08 01:35:59;;;;;;;19.33;9.57;;;11.60;99.90;;;;;;5025038;28;20480;-74
2023/06/08 01:38:50;;;;;;;23.38;9.13;;;11.50;99.90;;;;;;5014679;28;20077;-72
2023/06/08 01:41:24;;;;;;;17.35;8.52;;;11.60;99.90;;;;;;5022949;28;20041;-73
2023/06/08 01:43:51;;;;;;;20.45;8.90;;;11.60;99.90;;;;;;5021420;28;20045;-73
2023/06/08 01:46:20;;;;;;;20.30;9.45;;;11.60;99.90;;;;;;5006103;28;20047;-73
2023/06/08 01:48:47;;;;;;;18.35;9.10;;;11.60;99.90;;;;;;5020852;28;20076;-71
2023/06/08 01:51:14;;;;;;;20.52;9.82;;;11.60;99.90;;;;;;5020833;28;20041;-73
2023/06/08 01:53:41;;;;;;;21.80;10.27;;;11.60;99.90;;;;;;5022543;28;20531;-72
2023/06/08 01:56:06;;;;;;;19.00;10.65;;;11.60;99.90;;;;;;5022474;28;20068;-73
2023/06/08 01:58:32;;;;;;;24.52;10.70;;;11.50;99.90;;;;;;5017508;28;20076;-73
2023/06/08 02:00:58;;;;;;;21.77;10.40;;;11.60;99.90;;;;;;5015262;28;20750;-73
2023/06/08 02:03:23;;;;;;;26.08;11.50;;;11.60;99.90;;;;;;5023457;28;20473;-72
2023/06/08 02:05:52;;;;;;;19.40;10.02;;;11.60;99.90;;;;;;5027534;28;20533;-74
2023/06/08 02:08:18;;;;;;;21.83;10.60;;;11.60;99.90;;;;;;5022002;28;20121;-71
2023/06/08 02:10:43;;;;;;;26.33;11.85;;;11.60;99.90;;;;;;5020787;28;20107;-73
2023/06/08 02:13:09;;;;;;;23.73;10.48;;;11.60;99.90;;;;;;5021932;28;20033;-73
2023/06/08 02:15:35;;;;;;;23.02;12.30;;;11.60;99.90;;;;;;5022593;28;20045;-73
2023/06/08 02:18:01;;;;;;;19.98;10.15;;;11.60;99.90;;;;;;5020828;28;20081;-73
2023/06/08 02:20:27;;;;;;;17.83;10.10;;;11.60;99.90;;;;;;5012381;28;20045;-73
2023/06/08 02:22:52;;;;;;;24.23;11.18;;;11.60;99.90;;;;;;5022570;28;20048;-74
2023/06/08 02:25:18;;;;;;;24.33;11.68;;;11.60;99.90;;;;;;5023676;28;20627;-72
2023/06/08 02:27:44;;;;;;;24.98;11.15;;;11.70;99.90;;;;;;5019918;28;20045;-74
2023/06/08 02:30:11;;;;;;;28.48;11.75;;;11.60;99.90;;;;;;5023326;28;20405;-73
2023/06/08 02:32:41;;;;;;;18.23;10.45;;;11.70;99.90;;;;;;5019529;28;20307;-73
2023/06/08 02:35:08;;;;;;;23.55;11.27;;;11.70;99.90;;;;;;5027409;28;20463;-73
2023/06/08 02:37:34;;;;;;;20.30;10.77;;;11.70;99.90;;;;;;5026760;28;20045;-71
2023/06/08 02:40:00;;;;;;;21.40;10.65;;;11.70;99.90;;;;;;5029093;28;20393;-72
2023/06/08 02:42:26;;;;;;;20.10;9.98;;;11.70;99.90;;;;;;5012690;28;20053;-72
2023/06/08 02:44:52;;;;;;;23.50;10.13;;;11.70;99.90;;;;;;5011516;28;20060;-72
2023/06/08 02:47:18;;;;;;;22.17;10.27;;;11.70;99.90;;;;;;5018536;28;20038;-72
2023/06/08 02:49:43;;;;;;;24.42;9.90;;;11.70;99.90;;;;;;5026823;28;20120;-73
2023/06/08 02:52:10;;;;;;;18.38;9.27;;;11.70;99.90;;;;;;5021698;28;20123;-72
2023/06/08 02:54:36;;;;;;;23.52;9.65;;;11.70;99.90;;;;;;5028494;28;20107;-73
2023/06/08 02:57:02;;;;;;;18.20;9.35;;;11.70;99.90;;;;;;5024562;28;20049;-73
2023/06/08 02:59:29;;;;;;;19.75;9.20;;;11.70;99.90;;;;;;5019612;28;20084;-73
2023/06/08 03:01:56;;;;;;;17.30;9.48;;;11.70;99.90;;;;;;5022756;28;20041;-74
2023/06/08 03:04:23;;;;;;;26.10;9.70;;;11.70;99.90;;;;;;5025114;28;20037;-72
2023/06/08 03:06:53;;;;;;;22.20;9.57;;;11.70;99.90;;;;;;5026943;28;20511;-72
2023/06/08 03:09:23;;;;;;;21.65;9.27;;;11.70;99.90;;;;;;5024590;28;20045;-72
2023/06/08 03:11:49;;;;;;;20.23;9.32;;;11.70;99.90;;;;;;5024734;28;20050;-72
2023/06/08 03:14:16;;;;;;;17.52;9.20;;;11.70;99.90;;;;;;5022359;28;20080;-72
2023/06/08 03:16:44;;;;;;;22.85;9.93;;;11.70;99.90;;;;;;5023441;28;20044;-72
2023/06/08 03:19:10;;;;;;;17.77;10.27;;;11.70;99.90;;;;;;5023750;28;20056;-72
2023/06/08 03:21:36;;;;;;;17.40;9.95;;;11.70;99.90;;;;;;5028713;28;20055;-73
2023/06/08 03:24:03;;;;;;;21.48;9.90;;;11.70;99.90;;;;;;5024561;28;20409;-73
2023/06/08 03:26:28;;;;;;;17.95;9.30;;;11.70;99.90;;;;;;5026619;28;20451;-73
2023/06/08 03:28:54;;;;;;;22.55;9.50;;;11.70;99.90;;;;;;5009494;28;20519;-73
2023/06/08 03:31:20;;;;;;;18.08;10.18;;;11.70;99.90;;;;;;5024173;28;20049;-72
2023/06/08 03:33:46;;;;;;;18.45;8.98;;;11.70;99.90;;;;;;5028361;28;20516;-72
2023/06/08 03:36:12;;;;;;;19.33;10.13;;;11.80;99.90;;;;;;5023435;28;20116;-73
2023/06/08 03:38:38;;;;;;;24.10;10.15;;;11.80;99.90;;;;;;5025163;28;20049;-72
2023/06/08 03:41:04;;;;;;;22.27;10.13;;;11.80;99.90;;;;;;5027346;28;20045;-73
2023/06/08 03:43:29;;;;;;;19.20;9.45;;;11.80;99.90;;;;;;5021852;28;20496;-71
2023/06/08 03:45:55;;;;;;;22.48;9.80;;;11.80;99.90;;;;;;5023883;28;20505;-72
2023/06/08 03:48:21;;;;;;;25.63;11.02;;;11.80;99.90;;;;;;5008369;28;20064;-73
2023/06/08 03:50:46;;;;;;;23.10;12.00;;;11.80;99.90;;;;;;5025694;28;20091;-73
2023/06/08 03:53:12;;;;;;;25.23;10.75;;;11.80;99.90;;;;;;5021987;28;20069;-72
2023/06/08 03:55:38;;;;;;;21.75;10.57;;;11.90;99.90;;;;;;5038065;28;20037;-73
2023/06/08 03:58:05;;;;;;;18.90;10.73;;;11.80;99.90;;;;;;5023917;28;20124;-73
2023/06/08 04:00:30;;;;;;;22.17;9.82;;;11.90;99.90;;;;;;5021396;28;20034;-73
2023/06/08 04:02:57;;;;;;;24.20;11.90;;;11.90;99.90;;;;;;5005449;28;20075;-71
2023/06/08 04:05:23;;;;;;;19.63;9.45;;;11.90;99.90;;;;;;5023823;28;20126;-73
2023/06/08 04:07:52;;;;;;;26.23;10.60;;;12.00;99.90;;;;;;5025945;28;20033;-72
2023/06/08 04:10:17;;;;;;;17.40;9.52;;;12.00;99.90;;;;;;5022444;28;20374;-73
2023/06/08 04:12:43;;;;;;;21.77;9.02;;;12.00;99.90;;;;;;5025224;28;20095;-73
2023/06/08 04:15:13;;;;;;;24.35;9.90;;;12.00;99.90;;;;;;5023643;28;20069;-72
2023/06/08 04:17:41;;;;;;;21.80;8.55;;;12.00;99.90;;;;;;5022757;28;20042;-71
2023/06/08 04:20:08;;;;;;;18.98;9.05;;;12.10;99.90;;;;;;5022271;28;20546;-73
2023/06/08 04:22:34;;;;;;;19.58;8.93;;;12.10;99.90;;;;;;5026346;28;20508;-73
2023/06/08 04:25:00;;;;;;;22.63;9.05;;;12.10;99.90;;;;;;5009085;28;20580;-73
2023/06/08 04:27:25;;;;;;;18.75;7.88;;;12.10;99.90;;;;;;5022855;28;20046;-72
2023/06/08 04:29:52;;;;;;;21.73;8.38;;;12.10;99.90;;;;;;5027704;28;20068;-72
2023/06/08 04:32:18;;;;;;;23.23;8.40;;;12.20;99.90;;;;;;5018605;28;20507;-72
2023/06/08 04:34:43;;;;;;;18.63;7.55;;;12.20;99.90;;;;;;5022680;28;20033;-72
2023/06/08 04:37:10;;;;;;;16.30;6.72;;;12.30;99.90;;;;;;5021957;28;20041;-72
2023/06/08 04:39:36;;;;;;;20.98;7.18;;;12.30;99.90;;;;;;5025242;28;20039;-72
2023/06/08 04:42:02;;;;;;;18.13;6.97;;;12.30;99.90;;;;;;5024474;28;20160;-72
2023/06/08 04:44:31;;;;;;;16.80;7.70;;;12.30;99.90;;;;;;5009162;28;20038;-71
2023/06/08 04:46:57;;;;;;;18.15;6.50;;;12.30;99.90;;;;;;5020743;28;20041;-72
2023/06/08 04:49:30;;;;;;;19.42;6.78;;;12.40;99.90;;;;;;5018522;28;21783;-73
2023/06/08 04:51:58;;;;;;;19.13;7.43;;;12.40;99.90;;;;;;5006459;28;20573;-73
2023/06/08 04:54:25;;;;;;;15.50;6.13;;;12.50;99.90;;;;;;5008027;28;20081;-74
2023/06/08 04:56:53;;;;;;;22.40;6.22;;;12.50;99.90;;;;;;5021997;28;20041;-73
2023/06/08 04:59:22;;;;;;;15.02;6.00;;;12.50;99.90;;;;;;5020893;28;20116;-73
2023/06/08 05:01:47;;;;;;;21.88;6.40;;;12.60;99.90;;;;;;5015921;28;20073;-73
2023/06/08 05:04:13;;;;;;;17.88;6.07;;;12.70;99.90;;;;;;5014800;28;20069;-72
2023/06/08 05:06:39;;;;;;;22.20;6.85;;;12.70;99.90;;;;;;5012863;28;20717;-73
2023/06/08 05:09:05;;;;;;;13.75;6.78;;;12.70;99.90;;;;;;5007432;28;20079;-72
2023/06/08 05:11:31;;;;;;;17.27;6.50;;;12.70;99.90;;;;;;5021913;28;20041;-70
2023/06/08 05:13:57;;;;;;;16.13;6.32;;;12.80;99.90;;;;;;5021474;28;20038;-72
2023/06/08 05:16:22;;;;;;;17.38;6.63;;;12.80;99.90;;;;;;5020474;28;20212;-72
2023/06/08 05:18:48;;;;;;;16.25;6.55;;;12.80;99.90;;;;;;5024348;28;20041;-72
2023/06/08 05:21:14;;;;;;;13.80;6.03;;;12.90;99.90;;;;;;5023265;28;20401;-71
2023/06/08 05:23:40;;;;;;;19.30;7.05;;;12.90;99.90;;;;;;5022794;28;20161;-71
2023/06/08 05:26:05;;;;;;;17.63;6.20;;;12.90;99.90;;;;;;5024640;28;20485;-72
2023/06/08 05:28:31;;;;;;;13.50;5.55;;;13.00;99.90;;;;;;5019681;28;20544;-72
2023/06/08 05:30:57;;;;;;;19.95;6.32;;;13.00;99.90;;;;;;5018452;28;20119;-72
2023/06/08 05:33:22;;;;;;;17.77;6.70;;;13.10;99.90;;;;;;5024389;28;20037;-72
2023/06/08 05:35:48;;;;;;;21.52;6.28;;;13.10;99.90;;;;;;5021563;28;20099;-71
2023/06/08 05:38:14;;;;;;;26.00;7.00;;;13.20;99.90;;;;;;4980703;28;20046;-73
2023/06/08 05:40:39;;;;;;;16.83;6.28;;;13.20;99.90;;;;;;5019135;28;20504;-71
2023/06/08 05:43:05;;;;;;;16.38;5.25;;;13.30;99.90;;;;;;5017371;28;20049;-71
2023/06/08 05:45:31;;;;;;;19.65;6.13;;;13.30;99.90;;;;;;5023483;28;20046;-72
2023/06/08 05:47:56;;;;;;;20.42;6.40;;;13.40;99.90;;;;;;5023140;28;20037;-73
2023/06/08 05:50:22;;;;;;;19.13;5.60;;;13.40;99.90;;;;;;5022655;28;20049;-73
2023/06/08 05:52:48;;;;;;;15.68;5.65;;;13.40;99.90;;;;;;5021177;28;20409;-72
2023/06/08 05:55:13;;;;;;;17.05;5.70;;;13.50;99.90;;;;;;5021229;28;20049;-73
2023/06/08 05:57:40;;;;;;;17.33;5.03;;;13.60;99.90;;;;;;5003482;28;20033;-72
2023/06/08 06:00:10;;;;;;;15.40;5.43;;;13.70;99.90;;;;;;5025393;28;20049;-72
2023/06/08 06:02:36;;;;;;;19.45;5.53;;;13.80;99.90;;;;;;5004274;28;20321;-72
2023/06/08 06:05:02;;;;;;;15.60;5.30;;;13.70;99.90;;;;;;5026520;28;20275;-73
2023/06/08 06:07:27;;;;;;;22.42;6.32;;;13.70;99.90;;;;;;5024721;28;20077;-72
2023/06/08 06:09:53;;;;;;;14.90;6.03;;;13.70;99.90;;;;;;5008756;28;20075;-72
2023/06/08 06:12:18;;;;;;;19.85;6.28;;;13.80;99.90;;;;;;5022141;28;20045;-73
2023/06/08 06:14:44;;;;;;;19.42;6.38;;;13.80;99.90;;;;;;5025479;28;20041;-73
2023/06/08 06:17:11;;;;;;;19.02;5.70;;;14.00;99.90;;;;;;5021622;28;20041;-73
2023/06/08 06:19:37;;;;;;;18.15;6.03;;;14.00;99.90;;;;;;5029211;28;20132;-71
2023/06/08 06:22:09;;;;;;;15.45;5.63;;;14.10;99.90;;;;;;5004730;28;20057;-70
2023/06/08 06:24:35;;;;;;;17.80;6.00;;;14.30;99.90;;;;;;5020123;28;20037;-72
2023/06/08 06:27:02;;;;;;;16.33;6.20;;;14.60;99.90;;;;;;5024926;28;20054;-73
2023/06/08 06:29:28;;;;;;;11.05;5.13;;;14.80;99.90;;;;;;5028462;28;20084;-71
2023/06/08 06:31:54;;;;;;;20.30;5.90;;;14.90;99.90;;;;;;5027331;28;20057;-73
2023/06/08 06:34:21;;;;;;;15.43;5.38;;;15.20;99.90;;;;;;5020249;28;20045;-72
2023/06/08 06:36:47;;;;;;;13.25;4.70;;;15.40;99.90;;;;;;5024518;28;20100;-73
2023/06/08 06:39:13;;;;;;;15.65;5.65;;;15.60;99.90;;;;;;5024999;28;20041;-74
2023/06/08 06:41:39;;;;;;;16.70;5.47;;;15.80;99.90;;;;;;5025996;28;20127;-73
2023/06/08 06:44:05;;;;;;;23.50;6.35;;;15.90;99.90;;;;;;5025667;28;20196;-73
2023/06/08 06:46:31;;;;;;;14.48;5.68;;;15.90;99.90;;;;;;5025466;28;20199;-73
2023/06/08 06:48:58;;;;;;;16.35;5.57;;;15.90;99.90;;;;;;4985439;28;1113604;-73
2023/06/08 06:51:23;;;;;;;14.90;4.75;;;16.00;99.90;;;;;;5023890;28;20052;-73
2023/06/08 06:53:52;;;;;;;19.92;5.95;;;15.90;99.90;;;;;;5024408;28;20116;-73
2023/06/08 06:56:17;;;;;;;12.50;4.97;;;15.90;99.90;;;;;;5026154;28;20076;-73
2023/06/08 06:58:46;;;;;;;15.90;5.93;;;16.00;99.90;;;;;;5025334;28;20084;-72
2023/06/08 07:01:12;;;;;;;13.45;5.50;;;16.20;99.90;;;;;;5026474;28;20037;-72
2023/06/08 07:03:42;;;;;;;13.23;5.13;;;16.40;99.90;;;;;;5022580;28;20045;-72
2023/06/08 07:06:09;;;;;;;13.95;5.15;;;16.60;99.90;;;;;;5026902;28;20045;-73
2023/06/08 07:08:35;;;;;;;16.42;5.55;;;16.80;99.90;;;;;;5028023;28;20044;-71
2023/06/08 07:11:01;;;;;;;20.80;5.30;;;16.80;99.90;;;;;;5027509;28;20041;-75
2023/06/08 07:13:27;;;;;;;16.75;5.10;;;16.80;99.90;;;;;;5024742;28;20044;-72
2023/06/08 07:15:53;;;;;;;15.77;5.28;;;16.80;99.90;;;;;;5027329;28;20067;-73
2023/06/08 07:18:19;;;;;;;14.35;4.82;;;16.80;99.90;;;;;;5022544;28;20082;-72
2023/06/08 07:20:45;;;;;;;13.88;5.07;;;16.80;99.90;;;;;;5024973;28;20068;-73
2023/06/08 07:23:11;;;;;;;11.95;4.85;;;16.80;99.90;;;;;;4980345;28;23079;-72
2023/06/08 07:25:37;;;;;;;12.63;5.10;;;17.00;99.90;;;;;;5012268;28;20033;-73
2023/06/08 07:28:04;;;;;;;12.75;5.00;;;17.10;99.90;;;;;;5027468;28;20572;-73
2023/06/08 07:30:31;;;;;;;15.75;5.18;;;17.20;99.90;;;;;;5028134;28;20309;-69
2023/06/08 07:33:01;;;;;;;13.52;4.90;;;17.30;99.90;;;;;;5022245;28;20029;-72
2023/06/08 07:35:27;;;;;;;12.73;4.95;;;17.30;99.90;;;;;;5022218;28;20053;-73
2023/06/08 07:37:53;;;;;;;16.38;4.53;;;17.40;99.90;;;;;;5025764;28;20049;-73
2023/06/08 07:40:21;;;;;;;16.83;5.20;;;17.40;99.90;;;;;;5024563;28;20052;-74
2023/06/08 07:42:48;;;;;;;12.30;5.25;;;17.50;99.90;;;;;;5025542;28;20042;-73
2023/06/08 07:45:14;;;;;;;12.90;5.00;;;17.40;99.90;;;;;;5023422;28;20133;-73
2023/06/08 07:47:41;;;;;;;18.10;5.70;;;17.50;99.90;;;;;;5024557;28;20045;-72
2023/06/08 07:50:08;;;;;;;13.50;4.82;;;17.60;99.90;;;;;;5027907;28;20045;-73
2023/06/08 07:52:34;;;;;;;16.50;5.25;;;17.80;99.90;;;;;;5024878;28;20041;-72
2023/06/08 07:55:00;;;;;;;14.93;4.88;;;17.90;99.90;;;;;;5020554;28;20045;-71
2023/06/08 07:57:26;;;;;;;12.77;4.07;;;18.00;99.90;;;;;;5020768;28;20045;-73
2023/06/08 07:59:52;;;;;;;13.25;4.63;;;18.10;99.90;;;;;;5023423;28;20049;-73
2023/06/08 08:02:17;;;;;;;14.82;4.60;;;18.10;99.90;;;;;;5014606;28;20378;-70
2023/06/08 08:04:43;;;;;;;15.95;4.85;;;18.20;99.90;;;;;;5022596;28;20106;-71
2023/06/08 08:07:09;;;;;;;16.25;5.28;;;18.20;99.90;;;;;;5022914;28;20104;-72
2023/06/08 08:09:35;;;;;;;10.73;4.10;;;18.30;99.90;;;;;;5025421;28;20444;-71
2023/06/08 08:12:01;;;;;;;16.77;4.57;;;18.40;99.90;;;;;;5021664;28;20108;-78
2023/06/08 08:14:27;;;;;;;14.18;4.43;;;18.40;99.90;;;;;;5028542;28;20053;-73
2023/06/08 08:16:53;;;;;;;13.18;4.32;;;18.40;99.90;;;;;;5024619;28;20174;-73
2023/06/08 08:19:19;;;;;;;10.88;4.57;;;18.50;99.90;;;;;;5025295;28;20042;-72
2023/06/08 08:21:47;;;;;;;17.83;5.28;;;18.60;99.90;;;;;;5001193;28;20050;-72
2023/06/08 08:24:13;;;;;;;15.65;4.90;;;18.70;99.90;;;;;;5025548;28;20467;-71
2023/06/08 08:26:43;;;;;;;11.63;4.88;;;18.70;99.90;;;;;;5027222;28;20447;-71
2023/06/08 08:29:09;;;;;;;18.98;5.47;;;18.70;99.90;;;;;;5025490;28;20044;-72
2023/06/08 08:31:35;;;;;;;11.68;4.90;;;18.70;99.90;;;;;;5024548;28;20049;-71
2023/06/08 08:34:01;;;;;;;18.27;5.45;;;18.70;99.90;;;;;;5023585;28;20045;-77
2023/06/08 08:36:27;;;;;;;11.07;3.75;;;18.80;99.90;;;;;;5025352;28;20056;-72
2023/06/08 08:38:52;;;;;;;16.55;4.82;;;18.90;99.90;;;;;;5008356;28;20484;-73
2023/06/08 08:41:26;;;;;;;11.95;5.00;;;18.90;99.90;;;;;;5019385;28;20136;-72
2023/06/08 08:44:03;;;;;;;15.07;5.40;;;18.80;99.90;;;;;;5027095;28;20056;-69
2023/06/08 08:46:34;;;;;;;13.70;5.18;;;18.80;99.90;;;;;;5025187;28;20037;-70
2023/06/08 08:49:06;;;;;;;12.50;4.70;;;18.90;99.90;;;;;;5022696;28;20045;-72
2023/06/08 08:51:38;;;;;;;9.02;3.65;;;18.90;99.90;;;;;;5019763;28;20077;-72
2023/06/08 08:54:05;;;;;;;15.82;4.90;;;19.00;99.90;;;;;;5016857;28;20046;-72
2023/06/08 08:56:37;;;;;;;12.13;4.75;;;19.10;99.90;;;;;;5024632;28;20037;-72
2023/06/08 08:59:04;;;;;;;14.77;5.38;;;19.20;99.90;;;;;;5027269;28;20037;-73
2023/06/08 09:01:32;;;;;;;15.57;5.22;;;19.30;99.90;;;;;;5023157;28;20046;-71
2023/06/08 09:03:59;;;;;;;13.88;5.78;;;19.30;99.90;;;;;;5023031;28;20385;-73
2023/06/08 09:06:25;;;;;;;13.02;4.93;;;19.40;99.90;;;;;;5001387;28;20049;-71
2023/06/08 09:08:51;;;;;;;10.15;4.97;;;19.40;99.90;;;;;;5024060;28;20041;-71
2023/06/08 09:11:17;;;;;;;12.60;4.30;;;19.40;99.90;;;;;;5027928;28;20539;-71
2023/06/08 09:13:43;;;;;;;14.20;5.15;;;19.60;99.90;;;;;;5024067;28;20111;-71
2023/06/08 09:16:14;;;;;;;12.50;4.95;;;19.60;99.90;;;;;;5022615;28;20034;-71
2023/06/08 09:18:44;;;;;;;15.63;4.65;;;19.50;99.90;;;;;;5024713;28;20041;-70
2023/06/08 09:21:21;;;;;;;12.20;4.75;;;19.30;99.90;;;;;;5020723;28;20068;-72
2023/06/08 09:24:21;;;;;;;13.82;4.88;;;19.40;99.90;;;;;;5023998;28;20060;-72
2023/06/08 09:26:49;;;;;;;12.95;5.05;;;19.40;99.90;;;;;;5009145;28;20045;-72
2023/06/08 09:29:36;;;;;;;11.15;4.22;;;19.50;99.90;;;;;;4997050;28;20129;-73
2023/06/08 09:32:03;;;;;;;13.35;4.30;;;19.50;99.90;;;;;;5013721;28;20080;-73
2023/06/08 09:34:34;;;;;;;12.02;3.90;;;19.50;99.90;;;;;;5020832;28;20049;-72
2023/06/08 09:37:10;;;;;;;16.27;4.00;;;19.50;99.90;;;;;;5021015;28;20176;-72
2023/06/08 09:39:45;;;;;;;12.88;4.00;;;19.60;99.90;;;;;;5017268;28;20199;-71
2023/06/08 09:42:11;;;;;;;12.27;4.45;;;19.70;99.90;;;;;;5021953;28;20048;-71
2023/06/08 09:44:38;;;;;;;11.70;4.32;;;19.80;99.90;;;;;;5024361;28;20053;-72
2023/06/08 09:47:27;;;;;;;8.38;3.80;;;19.90;99.90;;;;;;5015818;28;20052;-72
2023/06/08 09:49:54;;;;;;;11.88;4.32;;;20.10;99.90;;;;;;5006325;28;20041;-72
2023/06/08 09:52:23;;;;;;;13.75;4.18;;;20.10;99.90;;;;;;5020062;28;20072;-73
2023/06/08 09:54:51;;;;;;;15.48;4.68;;;20.10;99.90;;;;;;5009514;28;20033;-71
2023/06/08 09:57:20;;;;;;;10.02;4.35;;;20.00;99.90;;;;;;5023804;28;21189;-72
2023/06/08 09:59:50;;;;;;;12.93;4.95;;;20.00;99.90;;;;;;5005009;28;20067;-71
2023/06/08 10:02:29;;;;;;;11.80;4.25;;;20.10;99.90;;;;;;5005792;28;20501;-71
2023/06/08 10:05:01;;;;;;;10.43;4.40;;;20.20;99.90;;;;;;5021200;28;20038;-72
2023/06/08 10:07:33;;;;;;;8.88;3.95;;;20.20;99.90;;;;;;5020725;28;20077;-72
2023/06/08 10:10:07;;;;;;;13.10;4.20;;;20.10;99.90;;;;;;5017821;28;20510;-71
2023/06/08 10:12:33;;;;;;;9.73;3.47;;;20.00;99.90;;;;;;5023346;28;20049;-71
2023/06/08 10:15:00;;;;;;;9.77;3.97;;;20.10;99.90;;;;;;5026580;28;20068;-72
2023/06/08 10:17:28;;;;;;;13.50;3.83;;;20.10;99.90;;;;;;5022271;28;20353;-73
2023/06/08 10:19:56;;;;;;;9.63;4.63;;;20.10;99.90;;;;;;5021244;28;20045;-72
2023/06/08 10:22:23;;;;;;;11.70;4.47;;;20.10;99.90;;;;;;5019675;28;20543;-72
2023/06/08 10:24:52;;;;;;;9.93;3.90;;;20.10;99.90;;;;;;5023900;28;20041;-71
2023/06/08 10:27:29;;;;;;;10.35;4.18;;;20.30;99.90;;;;;;5005880;28;20488;-71
2023/06/08 10:29:59;;;;;;;13.23;4.10;;;20.30;99.90;;;;;;5022448;28;20502;-70
2023/06/08 10:32:31;;;;;;;11.35;4.07;;;20.30;99.90;;;;;;5022042;28;20041;-70
2023/06/08 10:34:58;;;;;;;10.60;4.55;;;20.20;99.90;;;;;;5024128;28;20046;-70
2023/06/08 10:37:27;;;;;;;12.70;4.70;;;20.10;99.90;;;;;;5023167;28;20049;-71
2023/06/08 10:39:53;;;;;;;16.58;5.57;;;20.00;99.90;;;;;;5024722;28;20480;-70
2023/06/08 10:42:22;;;;;;;9.80;4.60;;;20.10;99.90;;;;;;5013264;28;20053;-71
2023/06/08 10:44:56;;;;;;;11.25;5.43;;;20.20;99.90;;;;;;5025815;28;20164;-71
2023/06/08 10:47:22;;;;;;;10.27;4.32;;;20.30;99.90;;;;;;5021177;28;20049;-70
2023/06/08 10:49:58;;;;;;;12.07;5.68;;;20.30;99.90;;;;;;5025445;28;20481;-70
2023/06/08 10:52:26;;;;;;;11.30;5.47;;;20.30;99.90;;;;;;5022344;28;20042;-71
2023/06/08 10:55:11;;;;;;;11.50;4.90;;;20.30;99.90;;;;;;5028261;28;20050;-71
2023/06/08 10:57:45;;;;;;;14.38;5.78;;;20.30;99.90;;;;;;5026985;28;20049;-71
2023/06/08 11:00:26;;;;;;;10.45;4.63;;;20.40;99.90;;;;;;5030114;28;20048;-71
2023/06/08 11:02:57;;;;;;;11.15;4.55;;;20.40;99.90;;;;;;5022883;28;20053;-71
2023/06/08 11:05:23;;;;;;;13.93;5.22;;;20.40;99.90;;;;;;5025247;28;20439;-70
2023/06/08 11:07:56;;;;;;;13.05;6.10;;;20.40;99.90;;;;;;5023654;28;20045;-69
2023/06/08 11:10:22;;;;;;;16.55;6.35;;;20.40;99.90;;;;;;5028122;28;20072;-70
2023/06/08 11:12:48;;;;;;;12.63;5.38;;;20.40;99.90;;;;;;5026122;28;20033;-70
2023/06/08 11:15:13;;;;;;;9.40;4.75;;;20.40;99.90;;;;;;5024300;28;20044;-70
2023/06/08 11:17:44;;;;;;;11.48;5.38;;;20.40;99.90;;;;;;5028537;28;20408;-70
2023/06/08 11:20:10;;;;;;;12.60;4.93;;;20.30;99.90;;;;;;5025013;28;20047;-70
2023/06/08 11:22:40;;;;;;;10.35;4.20;;;20.20;99.90;;;;;;5027597;28;20049;-70
2023/06/08 11:25:08;;;;;;;14.45;3.78;;;20.30;99.90;;;;;;5026689;28;20049;-71
2023/06/08 11:27:42;;;;;;;12.20;4.30;;;20.30;99.90;;;;;;5027681;28;20055;-71
2023/06/08 11:30:08;;;;;;;14.25;3.95;;;20.30;99.90;;;;;;5024286;28;20040;-71
2023/06/08 11:32:37;;;;;;;12.50;3.95;;;20.30;99.90;;;;;;5025511;28;20562;-71
2023/06/08 11:35:05;;;;;;;8.65;3.53;;;20.30;99.90;;;;;;5023296;28;20077;-71
2023/06/08 11:37:35;;;;;;;8.95;3.40;;;20.30;99.90;;;;;;5023525;28;20037;-71
2023/06/08 11:40:08;;;;;;;10.50;3.50;;;20.40;99.90;;;;;;5028574;28;20144;-70
2023/06/08 11:42:36;;;;;;;11.05;3.92;;;20.50;99.90;;;;;;5023459;28;20455;-71
2023/06/08 11:45:04;;;;;;;15.93;4.03;;;20.70;99.90;;;;;;5022143;28;20037;-71
2023/06/08 11:47:31;;;;;;;10.82;3.60;;;20.60;99.90;;;;;;5027593;28;20497;-71
2023/06/08 11:49:59;;;;;;;13.93;4.55;;;20.60;99.90;;;;;;5023290;28;20041;-71
2023/06/08 11:52:25;;;;;;;12.32;4.18;;;20.50;99.90;;;;;;5024938;28;20085;-71
2023/06/08 11:54:56;;;;;;;11.48;4.15;;;20.40;99.90;;;;;;5027091;28;20168;-72
2023/06/08 11:57:40;;;;;;;11.85;4.90;;;20.30;99.90;;;;;;5006199;28;20413;-71
2023/06/08 12:00:18;;;;;;;9.45;4.43;;;20.40;99.90;;;;;;5022824;28;20401;-72
2023/06/08 12:02:46;;;;;;;11.20;5.00;;;20.30;99.90;;;;;;5018760;28;20099;-70
2023/06/08 12:05:18;;;;;;;11.70;4.38;;;20.30;99.90;;;;;;5021963;28;20045;-70
2023/06/08 12:08:16;;;;;;;9.57;4.00;;;20.30;99.90;;;;;;5021738;28;20045;-70
2023/06/08 12:10:43;;;;;;;9.70;4.07;;;20.30;99.90;;;;;;5007029;28;20309;-71
2023/06/08 12:13:13;;;;;;;10.60;3.92;;;20.20;99.90;;;;;;5026825;28;20065;-71
2023/06/08 12:15:44;;;;;;;11.18;3.92;;;20.20;99.90;;;;;;5009211;28;20757;-69
2023/06/08 12:18:15;;;;;;;11.07;3.60;;;20.20;99.90;;;;;;5020573;28;20050;-71
2023/06/08 12:20:42;;;;;;;8.43;3.22;;;20.30;99.90;;;;;;5026668;28;20123;-70
2023/06/08 12:23:08;;;;;;;10.13;3.72;;;20.30;99.90;;;;;;5026314;28;20033;-71
2023/06/08 12:25:35;;;;;;;10.05;3.28;;;20.30;99.90;;;;;;5027274;28;20107;-71
2023/06/08 12:28:01;;;;;;;7.22;3.00;;;20.30;99.90;;;;;;5025927;28;20056;-74
2023/06/08 12:30:27;;;;;;;11.48;3.42;;;20.40;99.90;;;;;;5027120;28;20532;-70
2023/06/08 12:32:55;;;;;;;11.32;3.63;;;20.40;99.90;;;;;;5022780;28;20057;-69
2023/06/08 12:35:21;;;;;;;11.15;3.05;;;20.40;99.90;;;;;;5022898;28;20626;-69
2023/06/08 12:37:50;;;;;;;13.82;3.55;;;20.50;99.90;;;;;;5041804;28;20072;-70
2023/06/08 12:40:23;;;;;;;10.23;3.30;;;20.60;99.90;;;;;;5028757;28;20046;-70